createdAt,value
2022-10-05T00:01:55.058Z,11.40
2022-10-05T00:04:24.706Z,11.40
2022-10-05T00:06:58.430Z,11.40
2022-10-05T00:09:26.400Z,11.30
2022-10-05T00:11:54.177Z,11.30
2022-10-05T00:14:26.540Z,11.30
2022-10-05T00:16:54.327Z,11.30
2022-10-05T00:19:24.905Z,11.30
2022-10-05T00:21:52.696Z,11.30
2022-10-05T00:24:21.377Z,11.30
2022-10-05T00:26:55.421Z,11.30
2022-10-05T00:29:26.878Z,11.20
2022-10-05T00:31:54.969Z,11.30
2022-10-05T00:34:22.872Z,11.30
2022-10-05T00:36:50.671Z,11.20
2022-10-05T00:39:19.384Z,11.20
2022-10-05T00:42:19.300Z,11.20
2022-10-05T00:44:55.530Z,11.30
2022-10-05T00:47:36.574Z,11.20
2022-10-05T00:50:40.726Z,11.20
2022-10-05T00:53:18.726Z,11.20
2022-10-05T00:55:57.210Z,11.20
2022-10-05T00:58:36.883Z,11.10
2022-10-05T01:01:12.365Z,11.20
2022-10-05T01:03:50.717Z,11.20
2022-10-05T01:06:25.622Z,11.20
2022-10-05T01:09:02.069Z,11.20
2022-10-05T01:11:36.999Z,11.20
2022-10-05T01:14:14.363Z,11.20
2022-10-05T01:16:52.238Z,11.20
2022-10-05T01:19:39.319Z,11.20
2022-10-05T01:22:20.712Z,11.10
2022-10-05T01:25:08.794Z,11.10
2022-10-05T01:27:52.925Z,11.10
2022-10-05T01:30:22.940Z,11.10
2022-10-05T01:32:56.912Z,11.10
2022-10-05T01:35:41.105Z,11.10
2022-10-05T01:38:22.588Z,11.00
2022-10-05T01:40:58.373Z,11.10
2022-10-05T01:43:34.183Z,11.10
2022-10-05T01:46:07.684Z,11.10
2022-10-05T01:48:48.605Z,11.10
2022-10-05T01:51:23.236Z,11.00
2022-10-05T01:54:03.164Z,11.10
2022-10-05T01:56:37.933Z,11.10
2022-10-05T01:59:18.811Z,11.10
2022-10-05T02:01:53.279Z,11.00
2022-10-05T02:04:56.604Z,11.00
2022-10-05T02:07:15.822Z,11.00
2022-10-05T02:09:49.174Z,11.00
2022-10-05T02:12:20.756Z,11.00
2022-10-05T02:14:53.532Z,11.00
2022-10-05T02:17:25.362Z,11.20
2022-10-05T02:19:58.157Z,11.00
2022-10-05T02:22:31.745Z,10.90
2022-10-05T02:25:04.030Z,11.00
2022-10-05T02:27:32.841Z,11.00
2022-10-05T02:30:06.132Z,10.90
2022-10-05T02:32:38.659Z,11.00
2022-10-05T02:35:15.225Z,11.00
2022-10-05T02:37:54.276Z,10.90
2022-10-05T02:40:31.789Z,10.90
2022-10-05T02:43:11.765Z,10.80
2022-10-05T02:45:46.872Z,10.90
2022-10-05T02:48:25.658Z,10.80
2022-10-05T02:51:00.550Z,10.80
2022-10-05T02:53:38.790Z,10.80
2022-10-05T02:56:15.499Z,11.10
2022-10-05T02:58:51.749Z,10.90
2022-10-05T03:01:26.453Z,10.80
2022-10-05T03:04:03.887Z,10.80
2022-10-05T03:06:36.988Z,11.10
2022-10-05T03:09:06.878Z,11.10
2022-10-05T03:11:44.362Z,11.00
2022-10-05T03:14:19.337Z,10.90
2022-10-05T03:17:03.909Z,11.20
2022-10-05T03:20:04.039Z,10.90
2022-10-05T03:22:48.958Z,10.80
2022-10-05T03:25:38.557Z,10.80
2022-10-05T03:28:12.119Z,10.80
2022-10-05T03:30:45.043Z,10.90
2022-10-05T03:33:20.771Z,10.80
2022-10-05T03:35:54.275Z,11.10
2022-10-05T03:38:31.367Z,10.90
2022-10-05T03:41:03.188Z,10.70
2022-10-05T03:43:51.274Z,10.90
2022-10-05T03:46:25.851Z,10.80
2022-10-05T03:49:02.094Z,10.70
2022-10-05T03:51:33.623Z,10.60
2022-10-05T03:54:07.193Z,10.80
2022-10-05T03:56:39.613Z,10.70
2022-10-05T03:59:14.353Z,10.60
2022-10-05T04:01:49.062Z,10.70
2022-10-05T04:04:25.086Z,10.80
2022-10-05T04:06:55.820Z,11.20
2022-10-05T04:09:27.238Z,10.60
2022-10-05T04:11:59.168Z,10.80
2022-10-05T04:14:31.928Z,10.50
2022-10-05T04:17:04.552Z,10.70
2022-10-05T04:19:38.524Z,10.60
2022-10-05T04:22:10.665Z,10.50
2022-10-05T04:24:43.069Z,10.60
2022-10-05T04:27:16.150Z,10.60
2022-10-05T04:29:49.615Z,10.60
2022-10-05T04:32:36.424Z,10.90
2022-10-05T04:35:20.117Z,10.60
2022-10-05T04:37:54.595Z,10.70
2022-10-05T04:40:37.995Z,10.80
2022-10-05T04:43:12.362Z,10.60
2022-10-05T04:45:52.905Z,10.70
2022-10-05T04:48:45.890Z,10.50
2022-10-05T04:51:26.656Z,10.50
2022-10-05T04:53:59.638Z,10.40
2022-10-05T04:56:34.359Z,10.40
2022-10-05T04:59:24.815Z,10.20
2022-10-05T05:02:06.568Z,10.30
2022-10-05T05:04:52.081Z,10.30
2022-10-05T05:07:37.679Z,10.50
2022-10-05T05:10:34.686Z,10.30
2022-10-05T05:13:14.712Z,10.40
2022-10-05T05:15:50.837Z,10.80
2022-10-05T05:18:42.598Z,10.30
2022-10-05T05:21:25.571Z,10.50
2022-10-05T05:24:04.884Z,10.30
2022-10-05T05:26:50.737Z,10.40
2022-10-05T05:29:25.899Z,10.30
2022-10-05T05:32:01.650Z,10.60
2022-10-05T05:34:42.290Z,10.30
2022-10-05T05:37:17.023Z,10.30
2022-10-05T05:39:55.725Z,10.30
2022-10-05T05:42:35.246Z,10.10
2022-10-05T05:45:11.625Z,10.30
2022-10-05T05:47:42.015Z,10.30
2022-10-05T05:50:30.292Z,10.20
2022-10-05T05:53:04.317Z,10.40
2022-10-05T05:55:39.384Z,10.30
2022-10-05T05:58:18.368Z,10.50
2022-10-05T06:00:49.508Z,10.30
2022-10-05T06:03:23.780Z,10.30
2022-10-05T06:05:55.781Z,10.30
2022-10-05T06:08:29.702Z,10.40
2022-10-05T06:11:02.544Z,10.30
2022-10-05T06:13:35.089Z,10.30
2022-10-05T06:16:10.387Z,10.30
2022-10-05T06:18:44.362Z,10.50
2022-10-05T06:21:19.937Z,10.50
2022-10-05T06:23:54.847Z,10.90
2022-10-05T06:26:40.485Z,10.80
2022-10-05T06:29:16.156Z,10.70
2022-10-05T06:31:59.152Z,10.80
2022-10-05T06:34:56.917Z,10.90
2022-10-05T06:37:36.033Z,10.60
2022-10-05T06:40:18.944Z,11.10
2022-10-05T06:45:30.874Z,10.60
2022-10-05T06:48:06.628Z,10.60
2022-10-05T06:50:40.672Z,10.70
2022-10-05T06:53:21.739Z,10.60
2022-10-05T06:55:54.912Z,10.70
2022-10-05T06:58:40.107Z,10.70
2022-10-05T07:01:12.038Z,10.80
2022-10-05T07:03:55.158Z,10.90
2022-10-05T07:06:29.756Z,10.80
2022-10-05T07:09:12.019Z,10.90
2022-10-05T07:12:08.224Z,11.10
2022-10-05T07:14:59.430Z,11.00
2022-10-05T07:17:42.510Z,11.10
2022-10-05T07:20:18.152Z,11.10
2022-10-05T07:23:04.856Z,11.20
2022-10-05T07:25:37.716Z,11.20
2022-10-05T07:28:09.640Z,11.30
2022-10-05T07:30:48.238Z,11.30
2022-10-05T07:33:21.828Z,11.30
2022-10-05T07:36:13.878Z,11.40
2022-10-05T07:38:46.770Z,11.40
2022-10-05T07:41:20.349Z,11.40
2022-10-05T07:44:02.339Z,11.50
2022-10-05T07:46:42.539Z,11.50
2022-10-05T07:49:19.236Z,11.60
2022-10-05T07:51:51.560Z,11.60
2022-10-05T07:54:22.685Z,11.60
2022-10-05T07:56:55.929Z,11.70
2022-10-05T07:59:31.360Z,11.70
2022-10-05T08:02:09.052Z,11.80
2022-10-05T08:04:46.026Z,11.80
2022-10-05T08:07:16.796Z,11.80
2022-10-05T08:09:51.547Z,11.80
2022-10-05T08:12:32.437Z,11.80
2022-10-05T08:15:06.486Z,11.90
2022-10-05T08:17:45.219Z,11.80
2022-10-05T08:20:27.534Z,11.90
2022-10-05T08:23:01.802Z,11.90
2022-10-05T08:25:42.273Z,11.90
2022-10-05T08:28:15.421Z,12.00
2022-10-05T08:30:55.337Z,12.00
2022-10-05T08:33:28.294Z,11.30
2022-10-05T08:36:07.172Z,12.10
2022-10-05T08:38:35.998Z,12.10
2022-10-05T08:41:39.281Z,11.60
2022-10-05T08:44:48.787Z,12.20
2022-10-05T08:47:30.930Z,12.20
2022-10-05T08:50:12.282Z,12.30
2022-10-05T08:53:01.140Z,12.30
2022-10-05T08:55:42.175Z,12.40
2022-10-05T08:58:27.042Z,12.40
2022-10-05T09:01:02.726Z,12.50
2022-10-05T09:03:53.507Z,12.40
2022-10-05T09:06:50.776Z,12.60
2022-10-05T09:09:51.172Z,12.70
2022-10-05T09:12:47.522Z,12.70
2022-10-05T09:15:37.979Z,12.80
2022-10-05T09:18:46.475Z,12.80
2022-10-05T09:21:23.461Z,12.90
2022-10-05T09:24:07.901Z,12.90
2022-10-05T09:26:54.001Z,13.00
2022-10-05T09:29:54.893Z,13.00
2022-10-05T09:32:41.942Z,13.00
2022-10-05T09:35:22.570Z,13.10
2022-10-05T09:38:14.022Z,13.10
2022-10-05T09:41:13.620Z,13.20
2022-10-05T09:44:31.221Z,13.30
2022-10-05T09:47:23.057Z,13.40
2022-10-05T09:50:26.516Z,13.50
2022-10-05T09:53:32.202Z,13.50
2022-10-05T09:56:15.714Z,13.60
2022-10-05T09:59:13.396Z,13.70
2022-10-05T10:02:05.545Z,13.70
2022-10-05T10:04:48.194Z,13.80
2022-10-05T10:07:51.507Z,13.90
2022-10-05T10:10:52.426Z,13.90
2022-10-05T10:13:46.735Z,13.90
2022-10-05T10:16:31.525Z,14.00
2022-10-05T10:19:18.603Z,14.00
2022-10-05T10:22:20.708Z,14.10
2022-10-05T10:25:35.552Z,14.10
2022-10-05T10:28:27.930Z,14.10
2022-10-05T10:31:18.160Z,14.20
2022-10-05T10:34:08.757Z,14.30
2022-10-05T10:37:13.779Z,14.30
2022-10-05T10:40:01.810Z,14.40
2022-10-05T10:42:41.217Z,14.40
2022-10-05T10:45:25.340Z,14.50
2022-10-05T10:48:01.857Z,14.60
2022-10-05T10:51:11.885Z,14.40
2022-10-05T10:53:58.148Z,14.60
2022-10-05T10:56:40.647Z,14.70
2022-10-05T10:59:17.247Z,14.50
2022-10-05T11:01:54.822Z,14.80
2022-10-05T11:04:55.690Z,14.80
2022-10-05T11:07:45.452Z,14.90
2022-10-05T11:10:26.747Z,15.00
2022-10-05T11:13:35.446Z,15.00
2022-10-05T11:16:35.589Z,15.10
2022-10-05T11:20:04.077Z,15.20
2022-10-05T11:22:51.309Z,15.30
2022-10-05T11:25:47.942Z,15.30
2022-10-05T11:28:37.192Z,15.30
2022-10-05T11:31:31.034Z,15.40
2022-10-05T11:34:29.258Z,15.30
2022-10-05T11:37:13.631Z,15.40
2022-10-05T11:40:03.678Z,15.40
2022-10-05T11:43:17.833Z,15.50
2022-10-05T11:46:01.567Z,15.60
2022-10-05T11:48:41.489Z,15.60
2022-10-05T11:51:29.765Z,15.70
2022-10-05T11:54:17.488Z,15.70
2022-10-05T11:56:54.833Z,15.80
2022-10-05T11:59:30.823Z,15.80
2022-10-05T12:02:08.055Z,15.90
2022-10-05T12:04:43.830Z,16.00
2022-10-05T12:07:20.178Z,16.10
2022-10-05T12:10:17.318Z,16.10
2022-10-05T12:12:59.132Z,16.20
2022-10-05T12:15:32.026Z,16.20
2022-10-05T12:18:08.225Z,16.30
2022-10-05T12:20:41.554Z,16.40
2022-10-05T12:23:18.071Z,16.70
2022-10-05T12:25:49.821Z,16.60
2022-10-05T12:28:21.418Z,16.60
2022-10-05T12:31:21.635Z,16.70
2022-10-05T12:33:58.380Z,16.90
2022-10-05T12:36:59.599Z,17.00
2022-10-05T12:39:32.084Z,17.00
2022-10-05T12:42:10.531Z,17.20
2022-10-05T12:44:53.072Z,17.20
2022-10-05T12:47:28.638Z,17.60
2022-10-05T12:50:04.386Z,17.40
2022-10-05T12:52:50.144Z,17.40
2022-10-05T12:55:26.077Z,17.60
2022-10-05T12:58:06.664Z,17.70
2022-10-05T13:00:40.576Z,17.80
2022-10-05T13:03:16.066Z,17.90
2022-10-05T13:05:53.443Z,18.10
2022-10-05T13:08:28.439Z,18.20
2022-10-05T13:11:03.805Z,18.40
2022-10-05T13:13:44.288Z,18.60
2022-10-05T13:16:27.794Z,18.80
2022-10-05T13:19:06.742Z,19.10
2022-10-05T13:21:52.627Z,19.30
2022-10-05T13:24:24.669Z,19.50
2022-10-05T13:26:55.882Z,19.80
2022-10-05T13:29:33.084Z,19.90
2022-10-05T13:32:07.541Z,20.00
2022-10-05T13:34:40.098Z,20.00
2022-10-05T13:37:18.597Z,20.00
2022-10-05T13:40:01.962Z,19.80
2022-10-05T13:42:35.540Z,19.80
2022-10-05T13:45:13.675Z,19.70
2022-10-05T13:47:56.225Z,19.70
2022-10-05T13:50:32.767Z,19.60
2022-10-05T13:53:09.047Z,19.50
2022-10-05T13:55:43.701Z,19.50
2022-10-05T13:58:19.894Z,19.50
2022-10-05T14:00:52.961Z,19.40
2022-10-05T14:03:32.317Z,19.40
2022-10-05T14:06:02.450Z,19.40
2022-10-05T14:08:33.409Z,19.30
2022-10-05T14:11:20.506Z,19.30
2022-10-05T14:13:50.149Z,19.20
2022-10-05T14:16:23.797Z,19.20
2022-10-05T14:18:56.498Z,19.10
2022-10-05T14:21:26.310Z,19.10
2022-10-05T14:23:57.167Z,19.10
2022-10-05T14:26:35.925Z,19.10
2022-10-05T14:29:17.330Z,19.10
2022-10-05T14:31:52.397Z,19.10
2022-10-05T14:34:34.492Z,19.20
2022-10-05T14:37:09.988Z,19.20
2022-10-05T14:39:43.486Z,19.30
2022-10-05T14:42:18.927Z,19.40
2022-10-05T14:44:58.805Z,19.60
2022-10-05T14:47:30.234Z,19.80
2022-10-05T14:50:17.680Z,19.90
2022-10-05T14:52:51.778Z,20.00
2022-10-05T14:55:37.286Z,20.10
2022-10-05T14:58:16.095Z,20.30
2022-10-05T15:00:55.475Z,20.50
2022-10-05T15:03:37.657Z,20.50
2022-10-05T15:06:13.237Z,20.50
2022-10-05T15:08:52.436Z,20.60
2022-10-05T15:11:34.410Z,20.60
2022-10-05T15:14:03.034Z,20.60
2022-10-05T15:16:34.125Z,20.50
2022-10-05T15:19:12.449Z,20.30
2022-10-05T15:21:54.469Z,20.10
2022-10-05T15:24:26.627Z,20.00
2022-10-05T15:26:56.600Z,19.80
2022-10-05T15:29:52.392Z,19.70
2022-10-05T15:32:32.406Z,19.50
2022-10-05T15:35:27.990Z,19.30
2022-10-05T15:38:02.129Z,19.20
2022-10-05T15:40:35.801Z,19.10
2022-10-05T15:43:09.561Z,19.00
2022-10-05T15:45:43.086Z,18.90
2022-10-05T15:48:20.886Z,18.80
2022-10-05T15:50:56.916Z,18.70
2022-10-05T15:53:33.182Z,18.60
2022-10-05T15:56:06.401Z,18.50
2022-10-05T15:58:51.926Z,18.50
2022-10-05T16:01:24.287Z,18.40
2022-10-05T16:03:55.377Z,18.40
2022-10-05T16:06:53.876Z,18.30
2022-10-05T16:09:36.653Z,18.20
2022-10-05T16:12:18.564Z,18.20
2022-10-05T16:14:59.793Z,18.10
2022-10-05T16:17:40.869Z,18.00
2022-10-05T16:20:25.900Z,18.00
2022-10-05T16:23:01.940Z,17.90
2022-10-05T16:25:44.841Z,17.80
2022-10-05T16:28:23.384Z,17.70
2022-10-05T16:30:59.907Z,17.70
2022-10-05T16:33:35.945Z,17.60
2022-10-05T16:36:16.138Z,17.50
2022-10-05T16:38:50.272Z,17.40
2022-10-05T16:41:24.556Z,17.40
2022-10-05T16:43:58.838Z,17.30
2022-10-05T16:46:36.604Z,17.30
2022-10-05T16:49:14.746Z,17.20
2022-10-05T16:51:53.252Z,17.20
2022-10-05T16:54:25.289Z,17.20
2022-10-05T16:56:57.617Z,17.10
2022-10-05T17:00:03.594Z,17.10
2022-10-05T17:03:01.085Z,17.00
2022-10-05T17:05:48.651Z,17.00
2022-10-05T17:08:31.646Z,16.90
2022-10-05T17:11:07.844Z,16.90
2022-10-05T17:13:56.690Z,16.80
2022-10-05T17:16:30.328Z,16.80
2022-10-05T17:19:27.222Z,16.70
2022-10-05T17:22:00.643Z,16.70
2022-10-05T17:24:47.540Z,16.60
2022-10-05T17:27:24.234Z,16.50
2022-10-05T17:29:55.167Z,16.50
2022-10-05T17:32:36.135Z,16.50
2022-10-05T17:35:18.773Z,16.50
2022-10-05T17:38:20.058Z,16.40
2022-10-05T17:41:13.204Z,16.40
2022-10-05T17:43:41.483Z,16.30
2022-10-05T17:46:12.309Z,16.30
2022-10-05T17:48:45.040Z,16.20
2022-10-05T17:51:52.232Z,16.30
2022-10-05T17:54:39.938Z,16.20
2022-10-05T17:57:21.437Z,16.10
2022-10-05T17:59:58.851Z,16.10
2022-10-05T18:02:42.719Z,16.10
2022-10-05T18:05:27.552Z,16.10
2022-10-05T18:08:30.217Z,16.10
2022-10-05T18:11:16.989Z,16.00
2022-10-05T18:13:50.137Z,16.00
2022-10-05T18:16:51.212Z,16.00
2022-10-05T18:19:23.523Z,15.90
2022-10-05T18:22:03.277Z,15.90
2022-10-05T18:25:03.819Z,15.80
2022-10-05T18:28:02.478Z,15.80
2022-10-05T18:30:34.931Z,15.80
2022-10-05T18:33:21.231Z,15.80
2022-10-05T18:36:04.281Z,15.80
2022-10-05T18:38:48.459Z,15.80
2022-10-05T18:41:23.536Z,15.80
2022-10-05T18:44:03.427Z,15.90
2022-10-05T18:46:41.520Z,15.90
2022-10-05T18:49:23.044Z,15.90
2022-10-05T18:52:00.318Z,15.90
2022-10-05T18:54:49.029Z,15.80
2022-10-05T18:57:46.813Z,15.80
2022-10-05T19:00:17.964Z,15.80
2022-10-05T19:03:02.700Z,15.70
2022-10-05T19:05:53.047Z,15.70
2022-10-05T19:08:33.692Z,15.50
2022-10-05T19:11:28.418Z,15.60
2022-10-05T19:14:29.494Z,15.60
2022-10-05T19:17:16.664Z,15.60
2022-10-05T19:19:55.604Z,15.60
2022-10-05T19:22:38.568Z,15.50
2022-10-05T19:25:21.503Z,15.50
2022-10-05T19:27:59.889Z,15.40
2022-10-05T19:30:32.893Z,15.40
2022-10-05T19:33:19.844Z,15.40
2022-10-05T19:35:59.506Z,15.40
2022-10-05T19:38:36.030Z,15.40
2022-10-05T19:41:14.936Z,15.40
2022-10-05T19:44:01.451Z,15.30
2022-10-05T19:46:42.577Z,15.30
2022-10-05T19:49:11.458Z,15.30
2022-10-05T19:51:50.698Z,15.30
2022-10-05T19:54:29.826Z,15.20
2022-10-05T19:57:02.509Z,15.20
2022-10-05T19:59:32.086Z,15.20
2022-10-05T20:02:02.391Z,15.20
2022-10-05T20:04:35.096Z,15.20
2022-10-05T20:07:03.384Z,15.20
2022-10-05T20:09:50.148Z,15.20
2022-10-05T20:12:22.496Z,15.20
2022-10-05T20:15:23.498Z,15.20
2022-10-05T20:18:08.861Z,15.20
2022-10-05T20:20:41.632Z,15.10
2022-10-05T20:23:24.380Z,15.10
2022-10-05T20:26:10.037Z,15.10
2022-10-05T20:28:39.261Z,15.10
2022-10-05T20:31:08.042Z,15.10
2022-10-05T20:33:35.928Z,15.10
2022-10-05T20:36:04.582Z,15.10
2022-10-05T20:38:40.085Z,15.20
2022-10-05T20:41:08.961Z,15.20
2022-10-05T20:43:38.913Z,15.20
2022-10-05T20:46:08.518Z,15.20
2022-10-05T20:48:36.531Z,15.20
2022-10-05T20:51:04.357Z,15.20
2022-10-05T20:53:32.129Z,15.20
2022-10-05T20:56:02.364Z,15.20
2022-10-05T20:58:30.807Z,15.20
2022-10-05T21:01:18.364Z,15.20
2022-10-05T21:03:47.903Z,15.10
2022-10-05T21:06:15.721Z,15.10
2022-10-05T21:08:44.036Z,15.10
2022-10-05T21:11:12.109Z,15.10
2022-10-05T21:13:44.526Z,15.10
2022-10-05T21:16:13.442Z,15.00
2022-10-05T21:18:41.914Z,15.00
2022-10-05T21:21:11.352Z,15.00
2022-10-05T21:23:39.166Z,15.00
2022-10-05T21:26:07.844Z,15.00
2022-10-05T21:28:35.709Z,15.00
2022-10-05T21:31:03.577Z,15.00
2022-10-05T21:33:31.774Z,15.00
2022-10-05T21:35:59.771Z,15.00
2022-10-05T21:38:29.756Z,14.90
2022-10-05T21:40:57.769Z,15.00
2022-10-05T21:43:26.354Z,15.00
2022-10-05T21:45:55.896Z,15.00
2022-10-05T21:48:24.230Z,15.00
2022-10-05T21:50:52.111Z,15.00
2022-10-05T21:53:22.427Z,15.00
2022-10-05T21:55:52.663Z,15.00
2022-10-05T21:58:23.306Z,15.00
2022-10-05T22:00:51.180Z,15.00
2022-10-05T22:03:19.090Z,15.00
2022-10-05T22:05:46.983Z,15.00
2022-10-05T22:08:21.710Z,15.00
2022-10-05T22:10:50.927Z,14.90
2022-10-05T22:13:18.876Z,14.90
2022-10-05T22:15:46.682Z,14.90
2022-10-05T22:18:18.089Z,14.90
2022-10-05T22:20:46.912Z,14.90
2022-10-05T22:23:14.753Z,14.90
2022-10-05T22:25:43.081Z,14.90
2022-10-05T22:28:15.344Z,14.90
2022-10-05T22:30:43.764Z,14.90
2022-10-05T22:33:12.222Z,14.90
2022-10-05T22:35:40.308Z,14.90
2022-10-05T22:38:08.124Z,15.00
2022-10-05T22:40:37.246Z,14.80
2022-10-05T22:43:05.136Z,14.90
2022-10-05T22:45:34.579Z,14.80
2022-10-05T22:48:03.673Z,14.90
2022-10-05T22:50:31.949Z,14.90
2022-10-05T22:52:59.743Z,14.90
2022-10-05T22:55:27.557Z,14.90
2022-10-05T22:57:55.513Z,14.90
2022-10-05T23:00:35.237Z,14.90
2022-10-05T23:03:13.165Z,14.90
2022-10-05T23:05:41.052Z,14.90
2022-10-05T23:08:08.852Z,14.90
2022-10-05T23:10:36.699Z,14.90
2022-10-05T23:13:04.934Z,14.90
2022-10-05T23:15:33.427Z,14.90
2022-10-05T23:18:01.252Z,14.90
2022-10-05T23:20:30.401Z,14.90
2022-10-05T23:23:00.162Z,14.90
2022-10-05T23:25:27.954Z,14.90
2022-10-05T23:27:55.814Z,14.90
2022-10-05T23:30:23.668Z,14.80
2022-10-05T23:32:51.517Z,14.80
2022-10-05T23:35:19.316Z,14.80
2022-10-05T23:37:48.532Z,14.80
2022-10-05T23:40:16.465Z,14.80
2022-10-05T23:42:44.302Z,14.70
2022-10-05T23:45:12.911Z,14.70
2022-10-05T23:47:41.200Z,14.70
2022-10-05T23:50:10.637Z,14.70
2022-10-05T23:52:38.766Z,14.70
2022-10-05T23:55:08.803Z,14.80
2022-10-05T23:57:38.222Z,14.80
